createdAt,value
2022-10-18T00:02:13.708Z,102444.59
2022-10-18T00:04:40.258Z,102453.22
2022-10-18T00:07:06.867Z,102453.22
2022-10-18T00:09:33.611Z,102461.00
2022-10-18T00:12:00.778Z,102451.44
2022-10-18T00:14:27.327Z,102453.13
2022-10-18T00:16:53.959Z,102459.16
2022-10-18T00:19:20.472Z,102454.78
2022-10-18T00:21:50.656Z,102457.38
2022-10-18T00:24:17.304Z,102459.94
2022-10-18T00:26:43.826Z,102470.25
2022-10-18T00:29:14.186Z,102480.59
2022-10-18T00:31:42.662Z,102479.66
2022-10-18T00:34:14.997Z,102477.03
2022-10-18T00:36:42.887Z,102480.44
2022-10-18T00:39:15.576Z,102492.53
2022-10-18T00:41:42.226Z,102498.56
2022-10-18T00:44:11.695Z,102498.53
2022-10-18T00:46:43.551Z,102516.69
2022-10-18T00:49:21.808Z,102505.38
2022-10-18T00:51:51.587Z,102504.50
2022-10-18T00:54:19.562Z,102506.22
2022-10-18T00:56:46.496Z,102504.47
2022-10-18T00:59:17.981Z,102519.13
2022-10-18T01:01:45.379Z,102516.50
2022-10-18T01:04:14.734Z,102517.34
2022-10-18T01:09:32.279Z,102514.63
2022-10-18T01:12:28.957Z,102528.47
2022-10-18T01:15:15.382Z,102532.78
2022-10-18T01:17:54.754Z,102535.28
2022-10-18T01:20:55.249Z,102539.59
2022-10-18T01:23:41.975Z,102539.53
2022-10-18T01:26:50.515Z,102550.75
2022-10-18T01:29:16.957Z,102544.66
2022-10-18T01:31:50.414Z,102540.16
2022-10-18T01:34:18.789Z,102541.91
2022-10-18T01:36:51.964Z,102538.38
2022-10-18T01:39:29.449Z,102540.94
2022-10-18T01:41:58.451Z,102534.84
2022-10-18T01:44:29.443Z,102527.88
2022-10-18T01:46:58.192Z,102532.16
2022-10-18T01:49:25.861Z,102536.47
2022-10-18T01:51:53.255Z,102534.66
2022-10-18T01:54:27.663Z,102539.78
2022-10-18T01:57:03.574Z,102538.91
2022-10-18T02:00:01.727Z,102533.63
2022-10-18T02:02:28.348Z,102537.91
2022-10-18T02:04:54.894Z,102542.19
2022-10-18T02:07:21.314Z,102542.13
2022-10-18T02:09:58.227Z,102545.53
2022-10-18T02:12:26.065Z,102542.00
2022-10-18T02:14:53.304Z,102553.19
2022-10-18T02:17:21.737Z,102539.28
2022-10-18T02:19:51.844Z,102547.00
2022-10-18T02:22:19.511Z,102553.81
2022-10-18T02:24:55.157Z,102560.72
2022-10-18T02:27:22.460Z,102555.47
2022-10-18T02:29:49.545Z,102558.06
2022-10-18T02:32:34.067Z,102571.78
2022-10-18T02:35:06.797Z,102568.28
2022-10-18T02:37:38.056Z,102561.28
2022-10-18T02:40:07.323Z,102556.00
2022-10-18T02:42:39.090Z,102571.59
2022-10-18T02:45:06.797Z,102568.09
2022-10-18T02:47:33.508Z,102568.00
2022-10-18T02:50:00.356Z,102571.44
2022-10-18T02:52:26.824Z,102570.56
2022-10-18T02:54:53.355Z,102561.81
2022-10-18T02:57:19.881Z,102556.63
2022-10-18T02:59:46.629Z,102558.31
2022-10-18T03:02:13.134Z,102563.47
2022-10-18T03:04:39.639Z,102555.59
2022-10-18T03:07:06.163Z,102552.97
2022-10-18T03:09:32.699Z,102558.97
2022-10-18T03:11:59.665Z,102557.16
2022-10-18T03:14:26.155Z,102558.78
2022-10-18T03:16:52.717Z,102562.28
2022-10-18T03:19:19.214Z,102557.03
2022-10-18T03:21:45.754Z,102556.97
2022-10-18T03:24:12.323Z,102565.63
2022-10-18T03:26:38.826Z,102568.06
2022-10-18T03:29:05.457Z,102566.28
2022-10-18T03:31:32.379Z,102571.44
2022-10-18T03:33:59.031Z,102571.38
2022-10-18T03:36:27.633Z,102559.19
2022-10-18T03:38:54.162Z,102564.31
2022-10-18T03:41:20.924Z,102559.94
2022-10-18T03:43:47.732Z,102566.88
2022-10-18T03:46:14.300Z,102567.69
2022-10-18T03:48:40.819Z,102559.03
2022-10-18T03:51:07.531Z,102560.69
2022-10-18T03:53:34.007Z,102557.16
2022-10-18T03:56:00.489Z,102556.31
2022-10-18T03:58:27.021Z,102553.63
2022-10-18T04:00:55.256Z,102556.97
2022-10-18T04:03:24.237Z,102563.88
2022-10-18T04:05:51.074Z,102559.41
2022-10-18T04:08:18.223Z,102562.84
2022-10-18T04:10:45.499Z,102565.38
2022-10-18T04:13:12.119Z,102562.75
2022-10-18T04:15:38.722Z,102567.84
2022-10-18T04:18:05.218Z,102572.16
2022-10-18T04:20:31.697Z,102573.78
2022-10-18T04:22:58.358Z,102577.25
2022-10-18T04:25:25.282Z,102574.69
2022-10-18T04:27:52.115Z,102572.00
2022-10-18T04:30:18.612Z,102573.75
2022-10-18T04:32:45.073Z,102570.22
2022-10-18T04:35:11.614Z,102583.09
2022-10-18T04:37:38.177Z,102590.91
2022-10-18T04:40:05.313Z,102588.25
2022-10-18T04:42:31.958Z,102595.22
2022-10-18T04:44:58.438Z,102599.53
2022-10-18T04:47:24.950Z,102593.53
2022-10-18T04:49:51.422Z,102605.72
2022-10-18T04:52:17.905Z,102604.97
2022-10-18T04:54:44.384Z,102605.88
2022-10-18T04:57:10.856Z,102604.22
2022-10-18T04:59:37.476Z,102604.31
2022-10-18T05:02:04.837Z,102604.41
2022-10-18T05:04:31.510Z,102611.38
2022-10-18T05:06:58.021Z,102611.47
2022-10-18T05:09:24.887Z,102607.09
2022-10-18T05:11:51.541Z,102604.63
2022-10-18T05:14:18.192Z,102607.25
2022-10-18T05:16:44.702Z,102599.50
2022-10-18T05:19:11.180Z,102606.56
2022-10-18T05:21:37.963Z,102608.22
2022-10-18T05:24:04.708Z,102616.94
2022-10-18T05:26:33.972Z,102606.50
2022-10-18T05:29:00.617Z,102617.09
2022-10-18T05:31:27.276Z,102620.63
2022-10-18T05:33:53.748Z,102620.69
2022-10-18T05:36:20.348Z,102625.88
2022-10-18T05:38:48.276Z,102618.94
2022-10-18T05:41:15.147Z,102635.53
2022-10-18T05:43:41.650Z,102640.81
2022-10-18T05:46:13.723Z,102641.72
2022-10-18T05:48:43.417Z,102636.66
2022-10-18T05:51:09.916Z,102638.44
2022-10-18T05:53:37.442Z,102638.34
2022-10-18T05:56:04.624Z,102634.84
2022-10-18T05:58:31.176Z,102647.19
2022-10-18T06:01:01.999Z,102643.75
2022-10-18T06:03:30.520Z,102645.50
2022-10-18T06:06:04.322Z,102639.50
2022-10-18T06:08:30.947Z,102649.09
2022-10-18T06:10:57.522Z,102645.66
2022-10-18T06:13:24.308Z,102635.19
2022-10-18T06:15:50.869Z,102646.59
2022-10-18T06:18:17.453Z,102657.91
2022-10-18T06:20:43.974Z,102657.91
2022-10-18T06:23:10.504Z,102650.97
2022-10-18T06:25:37.070Z,102652.72
2022-10-18T06:28:09.041Z,102654.47
2022-10-18T06:30:38.000Z,102652.63
2022-10-18T06:33:04.454Z,102657.06
2022-10-18T06:35:31.036Z,102663.16
2022-10-18T06:37:57.794Z,102658.03
2022-10-18T06:40:24.608Z,102665.84
2022-10-18T06:43:00.126Z,102659.88
2022-10-18T06:45:26.875Z,102660.72
2022-10-18T06:47:53.325Z,102665.13
2022-10-18T06:50:19.775Z,102669.47
2022-10-18T06:52:48.555Z,102673.91
2022-10-18T06:55:15.159Z,102679.09
2022-10-18T06:57:41.616Z,102683.41
2022-10-18T07:00:09.022Z,102684.28
2022-10-18T07:02:35.649Z,102681.69
2022-10-18T07:05:02.158Z,102680.81
2022-10-18T07:07:31.864Z,102683.63
2022-10-18T07:09:58.758Z,102684.53
2022-10-18T07:12:25.389Z,102695.81
2022-10-18T07:14:51.977Z,102699.31
2022-10-18T07:17:18.487Z,102701.06
2022-10-18T07:19:45.004Z,102701.06
2022-10-18T07:22:11.565Z,102690.56
2022-10-18T07:24:38.073Z,102708.00
2022-10-18T07:27:04.987Z,102714.03
2022-10-18T07:29:31.978Z,102714.91
2022-10-18T07:31:58.451Z,102723.63
2022-10-18T07:34:25.002Z,102718.38
2022-10-18T07:36:52.180Z,102716.00
2022-10-18T07:39:18.736Z,102727.28
2022-10-18T07:41:45.246Z,102728.16
2022-10-18T07:44:11.741Z,102729.94
2022-10-18T07:46:38.344Z,102729.06
2022-10-18T07:49:04.858Z,102738.69
2022-10-18T07:51:32.823Z,102749.09
2022-10-18T07:53:59.609Z,102730.91
2022-10-18T07:56:26.095Z,102743.09
2022-10-18T07:58:54.386Z,102744.06
2022-10-18T08:01:22.902Z,102741.56
2022-10-18T08:03:50.159Z,102738.22
2022-10-18T08:06:18.618Z,102740.91
2022-10-18T08:08:45.878Z,102744.47
2022-10-18T08:11:21.027Z,102744.63
2022-10-18T08:13:47.853Z,102747.34
2022-10-18T08:16:23.819Z,102756.13
2022-10-18T08:18:50.899Z,102747.44
2022-10-18T08:21:19.138Z,102755.34
2022-10-18T08:23:46.261Z,102751.16
2022-10-18T08:26:15.783Z,102753.88
2022-10-18T08:28:49.125Z,102765.25
2022-10-18T08:31:20.894Z,102769.75
2022-10-18T08:33:47.526Z,102776.81
2022-10-18T08:36:16.120Z,102778.72
2022-10-18T08:38:43.698Z,102783.19
2022-10-18T08:41:35.216Z,102785.88
2022-10-18T08:44:24.726Z,102790.34
2022-10-18T08:46:55.404Z,102775.63
2022-10-18T08:49:46.804Z,102775.88
2022-10-18T08:52:18.411Z,102770.75
2022-10-18T08:54:55.854Z,102774.41
2022-10-18T08:57:22.439Z,102773.72
2022-10-18T08:59:49.029Z,102782.53
2022-10-18T09:02:31.843Z,102776.63
2022-10-18T09:05:28.259Z,102788.09
2022-10-18T09:07:54.749Z,102783.94
2022-10-18T09:10:59.714Z,102779.66
2022-10-18T09:13:37.884Z,102777.13
2022-10-18T09:16:11.122Z,102782.50
2022-10-18T09:18:57.670Z,102782.56
2022-10-18T09:21:36.948Z,102768.69
2022-10-18T09:24:19.882Z,102775.72
2022-10-18T09:26:49.051Z,102777.66
2022-10-18T09:29:33.126Z,102789.00
2022-10-18T09:32:12.447Z,102786.50
2022-10-18T09:34:51.185Z,102779.66
2022-10-18T09:37:21.038Z,102785.84
2022-10-18T09:39:50.908Z,102799.00
2022-10-18T09:42:26.980Z,102795.63
2022-10-18T09:45:00.920Z,102795.72
2022-10-18T09:47:41.544Z,102790.69
2022-10-18T09:50:19.907Z,102789.94
2022-10-18T09:52:58.828Z,102801.41
2022-10-18T09:55:32.550Z,102792.03
2022-10-18T09:58:02.770Z,102800.84
2022-10-18T10:00:35.188Z,102794.84
2022-10-18T10:03:02.686Z,102791.41
2022-10-18T10:05:29.569Z,102799.34
2022-10-18T10:07:59.993Z,102801.13
2022-10-18T10:10:29.867Z,102799.50
2022-10-18T10:13:06.943Z,102804.81
2022-10-18T10:15:38.169Z,102806.66
2022-10-18T10:18:22.162Z,102810.31
2022-10-18T10:20:52.799Z,102802.59
2022-10-18T10:23:30.735Z,102796.53
2022-10-18T10:26:01.813Z,102784.38
2022-10-18T10:28:31.619Z,102796.59
2022-10-18T10:31:17.724Z,102790.47
2022-10-18T10:33:47.629Z,102793.97
2022-10-18T10:36:20.468Z,102787.81
2022-10-18T10:39:04.128Z,102793.84
2022-10-18T10:44:02.613Z,102780.53
2022-10-18T10:46:36.664Z,102787.44
2022-10-18T10:49:35.066Z,102782.91
2022-10-18T10:52:08.548Z,102779.19
2022-10-18T10:54:39.278Z,102780.66
2022-10-18T10:57:16.609Z,102781.28
2022-10-18T10:59:46.557Z,102791.59
2022-10-18T11:02:15.407Z,102787.88
2022-10-18T11:04:42.987Z,102780.66
2022-10-18T11:07:10.263Z,102779.50
2022-10-18T11:09:49.509Z,102783.59
2022-10-18T11:12:25.564Z,102771.88
2022-10-18T11:15:10.226Z,102778.59
2022-10-18T11:17:40.795Z,102783.66
2022-10-18T11:20:09.808Z,102768.63
2022-10-18T11:22:45.013Z,102777.13
2022-10-18T11:25:15.585Z,102781.25
2022-10-18T11:27:54.734Z,102785.47
2022-10-18T11:30:38.714Z,102781.63
2022-10-18T11:33:17.934Z,102776.94
2022-10-18T11:35:47.899Z,102771.47
2022-10-18T11:38:21.738Z,102762.53
2022-10-18T11:41:00.580Z,102752.66
2022-10-18T11:44:00.682Z,102757.69
2022-10-18T11:46:54.640Z,102751.41
2022-10-18T11:49:39.144Z,102747.91
2022-10-18T11:52:29.802Z,102740.72
2022-10-18T11:55:06.578Z,102728.31
2022-10-18T11:58:00.003Z,102731.84
2022-10-18T12:00:46.852Z,102729.88
2022-10-18T12:03:20.198Z,102722.81
2022-10-18T12:05:50.694Z,102729.75
2022-10-18T12:08:30.699Z,102728.00
2022-10-18T12:11:05.500Z,102728.00
2022-10-18T12:13:48.827Z,102719.28
2022-10-18T12:16:33.533Z,102718.41
2022-10-18T12:19:15.089Z,102720.91
2022-10-18T12:21:43.770Z,102716.59
2022-10-18T12:24:18.649Z,102712.31
2022-10-18T12:26:48.787Z,102696.56
2022-10-18T12:29:33.397Z,102703.50
2022-10-18T12:32:07.528Z,102706.19
2022-10-18T12:34:46.709Z,102703.59
2022-10-18T12:37:32.801Z,102702.78
2022-10-18T12:40:14.251Z,102698.50
2022-10-18T12:42:47.204Z,102686.38
2022-10-18T12:45:20.745Z,102682.13
2022-10-18T12:47:47.658Z,102672.00
2022-10-18T12:50:31.367Z,102673.00
2022-10-18T12:53:04.222Z,102678.47
2022-10-18T12:55:36.916Z,102674.16
2022-10-18T12:58:21.947Z,102672.66
2022-10-18T13:00:49.318Z,102670.03
2022-10-18T13:03:17.407Z,102666.69
2022-10-18T13:05:55.256Z,102654.63
2022-10-18T13:08:34.288Z,102658.22
2022-10-18T13:11:10.596Z,102662.69
2022-10-18T13:13:45.868Z,102649.72
2022-10-18T13:16:23.213Z,102655.94
2022-10-18T13:18:57.333Z,102650.75
2022-10-18T13:21:34.907Z,102644.69
2022-10-18T13:24:22.556Z,102642.16
2022-10-18T13:27:18.097Z,102635.19
2022-10-18T13:29:56.779Z,102637.81
2022-10-18T13:32:37.619Z,102636.09
2022-10-18T13:35:34.127Z,102643.16
2022-10-18T13:38:01.665Z,102641.44
2022-10-18T13:40:29.451Z,102631.06
2022-10-18T13:42:56.340Z,102636.19
2022-10-18T13:45:33.522Z,102644.94
2022-10-18T13:48:19.472Z,102641.44
2022-10-18T13:50:49.758Z,102641.44
2022-10-18T13:53:25.160Z,102631.00
2022-10-18T13:55:56.040Z,102623.00
2022-10-18T13:58:33.636Z,102625.63
2022-10-18T14:01:14.370Z,102637.91
2022-10-18T14:04:00.508Z,102616.81
2022-10-18T14:06:33.821Z,102615.03
2022-10-18T14:09:25.649Z,102606.34
2022-10-18T14:12:16.830Z,102610.53
2022-10-18T14:14:46.004Z,102606.19
2022-10-18T14:17:20.391Z,102600.91
2022-10-18T14:19:56.877Z,102604.38
2022-10-18T14:22:33.957Z,102609.50
2022-10-18T14:25:01.341Z,102612.97
2022-10-18T14:27:33.093Z,102613.78
2022-10-18T14:30:10.471Z,102610.22
2022-10-18T14:32:37.566Z,102609.25
2022-10-18T14:37:54.326Z,102614.25
2022-10-18T14:40:30.837Z,102621.19
2022-10-18T14:43:03.539Z,102618.47
2022-10-18T14:45:30.479Z,102620.03
2022-10-18T14:48:06.305Z,102619.09
2022-10-18T14:50:33.851Z,102623.44
2022-10-18T14:53:07.243Z,102620.63
2022-10-18T14:55:35.636Z,102620.34
2022-10-18T14:58:03.158Z,102623.50
2022-10-18T15:00:36.267Z,102629.31
2022-10-18T15:03:07.463Z,102641.34
2022-10-18T15:05:34.448Z,102627.13
2022-10-18T15:08:01.881Z,102623.56
2022-10-18T15:10:32.669Z,102634.81
2022-10-18T15:13:11.280Z,102636.75
2022-10-18T15:15:39.499Z,102629.91
2022-10-18T15:18:08.648Z,102627.25
2022-10-18T15:20:42.825Z,102631.72
2022-10-18T15:23:24.435Z,102629.31
2022-10-18T15:25:53.995Z,102629.53
2022-10-18T15:28:31.530Z,102617.56
2022-10-18T15:30:59.087Z,102609.94
2022-10-18T15:33:27.679Z,102622.25
2022-10-18T15:35:55.245Z,102610.22
2022-10-18T15:38:27.903Z,102614.78
2022-10-18T15:40:56.597Z,102615.78
2022-10-18T15:43:24.236Z,102621.25
2022-10-18T15:45:55.584Z,102619.69
2022-10-18T15:48:30.925Z,102619.81
2022-10-18T15:51:05.327Z,102612.91
2022-10-18T15:53:38.245Z,102605.16
2022-10-18T15:56:07.112Z,102601.84
2022-10-18T15:58:40.037Z,102624.69
2022-10-18T16:01:16.412Z,102623.88
2022-10-18T16:03:44.275Z,102632.75
2022-10-18T16:06:15.882Z,102632.00
2022-10-18T16:08:48.971Z,102630.41
2022-10-18T16:11:22.204Z,102613.16
2022-10-18T16:13:49.746Z,102621.97
2022-10-18T16:16:20.654Z,102623.84
2022-10-18T16:18:48.126Z,102619.59
2022-10-18T16:21:18.156Z,102616.19
2022-10-18T16:23:45.940Z,102618.06
2022-10-18T16:26:13.916Z,102614.78
2022-10-18T16:28:41.784Z,102627.13
2022-10-18T16:31:13.241Z,102637.69
2022-10-18T16:33:40.550Z,102630.78
2022-10-18T16:36:07.958Z,102624.75
2022-10-18T16:38:37.301Z,102628.34
2022-10-18T16:41:05.755Z,102617.13
2022-10-18T16:43:34.972Z,102618.91
2022-10-18T16:46:03.382Z,102617.25
2022-10-18T16:48:33.479Z,102618.28
2022-10-18T16:51:00.978Z,102614.84
2022-10-18T16:53:29.020Z,102618.44
2022-10-18T16:56:00.226Z,102622.88
2022-10-18T16:58:29.633Z,102632.59
2022-10-18T17:00:57.129Z,102647.56
2022-10-18T17:03:24.860Z,102644.16
2022-10-18T17:05:53.148Z,102642.53
2022-10-18T17:08:23.885Z,102646.97
2022-10-18T17:10:53.285Z,102653.19
2022-10-18T17:13:22.035Z,102648.03
2022-10-18T17:15:50.306Z,102649.84
2022-10-18T17:18:22.179Z,102652.56
2022-10-18T17:20:50.146Z,102645.63
2022-10-18T17:23:17.357Z,102656.13
2022-10-18T17:25:57.580Z,102649.22
2022-10-18T17:28:32.310Z,102654.50
2022-10-18T17:30:59.345Z,102655.44
2022-10-18T17:33:26.310Z,102651.13
2022-10-18T17:35:53.292Z,102655.50
2022-10-18T17:38:20.723Z,102653.75
2022-10-18T17:40:47.669Z,102649.41
2022-10-18T17:43:14.787Z,102645.09
2022-10-18T17:45:51.240Z,102651.22
2022-10-18T17:48:18.113Z,102652.13
2022-10-18T17:50:45.669Z,102646.06
2022-10-18T17:53:13.458Z,102639.97
2022-10-18T17:55:40.976Z,102644.38
2022-10-18T17:58:08.281Z,102638.28
2022-10-18T18:00:35.359Z,102646.19
2022-10-18T18:03:02.834Z,102650.59
2022-10-18T18:05:33.206Z,102646.25
2022-10-18T18:08:03.998Z,102647.13
2022-10-18T18:10:33.820Z,102648.94
2022-10-18T18:13:01.963Z,102644.59
2022-10-18T18:15:29.140Z,102648.97
2022-10-18T18:17:57.422Z,102638.53
2022-10-18T18:20:27.221Z,102652.47
2022-10-18T18:22:54.486Z,102641.16
2022-10-18T18:25:21.558Z,102655.13
2022-10-18T18:27:48.779Z,102656.88
2022-10-18T18:30:18.199Z,102661.25
2022-10-18T18:32:45.466Z,102657.78
2022-10-18T18:35:12.879Z,102664.75
2022-10-18T18:37:40.135Z,102666.50
2022-10-18T18:40:08.287Z,102652.59
2022-10-18T18:42:35.786Z,102663.91
2022-10-18T18:45:03.173Z,102649.97
2022-10-18T18:47:30.278Z,102640.38
2022-10-18T18:49:57.309Z,102638.63
2022-10-18T18:52:24.415Z,102632.56
2022-10-18T18:54:51.993Z,102619.47
2022-10-18T18:57:19.051Z,102628.19
2022-10-18T18:59:46.758Z,102636.91
2022-10-18T19:02:15.539Z,102629.97
2022-10-18T19:04:42.755Z,102641.31
2022-10-18T19:07:09.995Z,102650.91
2022-10-18T19:09:39.072Z,102639.59
2022-10-18T19:12:06.571Z,102634.31
2022-10-18T19:14:34.021Z,102642.19
2022-10-18T19:17:05.238Z,102643.94
2022-10-18T19:19:33.129Z,102642.19
2022-10-18T19:22:04.065Z,102644.84
2022-10-18T19:24:33.391Z,102650.91
2022-10-18T19:27:05.105Z,102642.22
2022-10-18T19:29:36.037Z,102627.41
2022-10-18T19:32:09.942Z,102621.31
2022-10-18T19:34:37.314Z,102630.88
2022-10-18T19:37:04.634Z,102620.44
2022-10-18T19:39:34.702Z,102625.66
2022-10-18T19:42:05.838Z,102630.03
2022-10-18T19:44:36.420Z,102637.88
2022-10-18T19:47:05.012Z,102638.78
2022-10-18T19:49:32.632Z,102638.78
2022-10-18T19:51:59.879Z,102641.38
2022-10-18T19:54:27.212Z,102627.44
2022-10-18T19:56:54.391Z,102635.28
2022-10-18T19:59:23.182Z,102621.34
2022-10-18T20:01:50.799Z,102630.06
2022-10-18T20:04:18.426Z,102621.34
2022-10-18T20:06:45.741Z,102623.09
2022-10-18T20:09:16.250Z,102619.59
2022-10-18T20:11:47.311Z,102615.28
2022-10-18T20:14:14.522Z,102623.97
2022-10-18T20:16:41.557Z,102621.38
2022-10-18T20:19:09.877Z,102627.47
2022-10-18T20:21:37.024Z,102619.63
2022-10-18T20:24:06.335Z,102635.31
2022-10-18T20:26:33.869Z,102633.56
2022-10-18T20:29:01.000Z,102630.09
2022-10-18T20:31:31.073Z,102618.78
2022-10-18T20:34:01.025Z,102616.13
2022-10-18T20:36:30.157Z,102616.13
2022-10-18T20:38:57.582Z,102628.34
2022-10-18T20:41:28.605Z,102617.00
2022-10-18T20:44:00.171Z,102616.13
2022-10-18T20:46:29.853Z,102621.38
2022-10-18T20:48:56.959Z,102615.28
2022-10-18T20:51:24.291Z,102608.31
2022-10-18T20:53:52.257Z,102608.31
2022-10-18T20:56:22.033Z,102596.97
2022-10-18T20:58:51.145Z,102603.94
2022-10-18T21:01:21.353Z,102601.31
2022-10-18T21:03:50.777Z,102596.97
2022-10-18T21:06:20.033Z,102597.84
2022-10-18T21:08:48.439Z,102603.94
2022-10-18T21:11:15.514Z,102601.34
2022-10-18T21:13:42.489Z,102602.22
2022-10-18T21:16:09.748Z,102603.09
2022-10-18T21:18:37.919Z,102607.44
2022-10-18T21:21:15.101Z,102609.16
2022-10-18T21:23:42.148Z,102611.78
2022-10-18T21:26:14.870Z,102606.56
2022-10-18T21:28:41.971Z,102610.03
2022-10-18T21:31:12.970Z,102597.00
2022-10-18T21:33:41.718Z,102610.03
2022-10-18T21:36:09.212Z,102591.75
2022-10-18T21:38:36.391Z,102602.22
2022-10-18T21:41:08.352Z,102587.41
2022-10-18T21:43:35.219Z,102598.72
2022-10-18T21:46:02.683Z,102601.31
2022-10-18T21:48:29.630Z,102590.88
2022-10-18T21:50:56.525Z,102595.25
2022-10-18T21:53:23.429Z,102591.78
2022-10-18T21:55:50.365Z,102590.91
2022-10-18T21:58:17.271Z,102567.38
2022-10-18T22:00:44.233Z,102573.47
2022-10-18T22:03:13.187Z,102574.34
2022-10-18T22:05:40.626Z,102570.84
2022-10-18T22:08:08.130Z,102561.28
2022-10-18T22:10:35.011Z,102555.19
2022-10-18T22:13:01.910Z,102559.53
2022-10-18T22:15:28.789Z,102557.78
2022-10-18T22:17:55.680Z,102561.28
2022-10-18T22:20:22.502Z,102563.00
2022-10-18T22:22:54.209Z,102563.88
2022-10-18T22:25:21.050Z,102558.66
2022-10-18T22:27:47.881Z,102552.56
2022-10-18T22:30:14.800Z,102543.00
2022-10-18T22:32:41.668Z,102529.94
2022-10-18T22:35:09.031Z,102530.78
2022-10-18T22:37:36.194Z,102532.53
2022-10-18T22:40:03.562Z,102528.19
2022-10-18T22:42:30.440Z,102534.28
2022-10-18T22:44:57.268Z,102533.41
2022-10-18T22:47:25.416Z,102538.63
2022-10-18T22:49:52.339Z,102526.44
2022-10-18T22:52:19.141Z,102532.56
2022-10-18T22:54:45.968Z,102532.56
2022-10-18T22:57:12.780Z,102524.69
2022-10-18T22:59:39.592Z,102529.94
2022-10-18T23:02:06.464Z,102519.47
2022-10-18T23:04:33.718Z,102523.84
2022-10-18T23:07:00.608Z,102530.78
2022-10-18T23:09:27.489Z,102520.34
2022-10-18T23:11:54.350Z,102531.66
2022-10-18T23:14:21.219Z,102533.41
2022-10-18T23:16:48.112Z,102540.38
2022-10-18T23:19:16.418Z,102541.25
2022-10-18T23:21:43.519Z,102534.28
2022-10-18T23:24:10.379Z,102536.91
2022-10-18T23:26:37.288Z,102538.63
2022-10-18T23:29:04.306Z,102536.91
2022-10-18T23:31:33.422Z,102529.06
2022-10-18T23:34:03.957Z,102531.69
2022-10-18T23:36:32.815Z,102540.38
2022-10-18T23:38:59.799Z,102551.69
2022-10-18T23:41:26.923Z,102545.59
2022-10-18T23:43:54.319Z,102545.59
2022-10-18T23:46:21.919Z,102551.69
2022-10-18T23:48:50.064Z,102558.66
2022-10-18T23:51:17.647Z,102544.69
2022-10-18T23:53:44.660Z,102535.13
2022-10-18T23:56:14.353Z,102549.91
2022-10-18T23:58:42.696Z,102554.22
